sensor_id;sensor_type;location;lat;lon;timestamp;P1;durP1;ratioP1;P2;durP2;ratioP2
32198;SDS011;19221;42.656;21.156;2022-10-10T00:01:14;45.45;;;34.65;;
32198;SDS011;19221;42.656;21.156;2022-10-10T00:06:43;46.45;;;35.53;;
32198;SDS011;19221;42.656;21.156;2022-10-10T00:09:08;46.55;;;35.53;;
32198;SDS011;19221;42.656;21.156;2022-10-10T00:11:34;50.58;;;37.72;;
32198;SDS011;19221;42.656;21.156;2022-10-10T00:14:01;54.45;;;39.78;;
32198;SDS011;19221;42.656;21.156;2022-10-10T00:16:26;56.95;;;38.08;;
32198;SDS011;19221;42.656;21.156;2022-10-10T00:18:52;59.45;;;39.10;;
32198;SDS011;19221;42.656;21.156;2022-10-10T00:21:18;62.35;;;42.08;;
32198;SDS011;19221;42.656;21.156;2022-10-10T00:23:44;59.58;;;42.75;;
32198;SDS011;19221;42.656;21.156;2022-10-10T00:26:09;70.15;;;46.70;;
32198;SDS011;19221;42.656;21.156;2022-10-10T00:28:35;60.17;;;44.45;;
32198;SDS011;19221;42.656;21.156;2022-10-10T00:31:03;58.78;;;43.92;;
32198;SDS011;19221;42.656;21.156;2022-10-10T00:33:29;60.25;;;44.78;;
32198;SDS011;19221;42.656;21.156;2022-10-10T00:35:55;61.75;;;43.47;;
32198;SDS011;19221;42.656;21.156;2022-10-10T00:38:21;56.22;;;41.55;;
32198;SDS011;19221;42.656;21.156;2022-10-10T00:40:51;50.75;;;39.63;;
32198;SDS011;19221;42.656;21.156;2022-10-10T00:43:17;44.33;;;34.90;;
32198;SDS011;19221;42.656;21.156;2022-10-10T00:45:44;46.28;;;35.85;;
32198;SDS011;19221;42.656;21.156;2022-10-10T00:48:17;42.40;;;33.95;;
32198;SDS011;19221;42.656;21.156;2022-10-10T00:51:07;45.28;;;34.55;;
32198;SDS011;19221;42.656;21.156;2022-10-10T00:53:34;51.22;;;36.42;;
32198;SDS011;19221;42.656;21.156;2022-10-10T00:56:00;46.28;;;35.05;;
32198;SDS011;19221;42.656;21.156;2022-10-10T00:58:27;47.55;;;34.40;;
32198;SDS011;19221;42.656;21.156;2022-10-10T01:00:52;42.33;;;34.47;;
32198;SDS011;19221;42.656;21.156;2022-10-10T01:03:18;44.13;;;35.10;;
32198;SDS011;19221;42.656;21.156;2022-10-10T01:05:44;45.42;;;35.95;;
32198;SDS011;19221;42.656;21.156;2022-10-10T01:08:11;45.35;;;35.85;;
32198;SDS011;19221;42.656;21.156;2022-10-10T01:10:40;45.78;;;36.00;;
32198;SDS011;19221;42.656;21.156;2022-10-10T01:13:10;54.13;;;36.97;;
32198;SDS011;19221;42.656;21.156;2022-10-10T01:18:17;49.92;;;37.67;;
32198;SDS011;19221;42.656;21.156;2022-10-10T01:23:19;44.58;;;36.33;;
32198;SDS011;19221;42.656;21.156;2022-10-10T01:31:01;51.03;;;39.28;;
32198;SDS011;19221;42.656;21.156;2022-10-10T01:33:32;52.40;;;39.30;;
32198;SDS011;19221;42.656;21.156;2022-10-10T01:36:02;52.60;;;41.15;;
32198;SDS011;19221;42.656;21.156;2022-10-10T01:38:30;48.07;;;39.17;;
32198;SDS011;19221;42.656;21.156;2022-10-10T01:41:13;52.63;;;39.00;;
32198;SDS011;19221;42.656;21.156;2022-10-10T01:43:40;47.10;;;39.83;;
32198;SDS011;19221;42.656;21.156;2022-10-10T01:46:10;49.63;;;40.10;;
32198;SDS011;19221;42.656;21.156;2022-10-10T01:48:35;49.70;;;39.15;;
32198;SDS011;19221;42.656;21.156;2022-10-10T02:06:38;45.95;;;38.25;;
32198;SDS011;19221;42.656;21.156;2022-10-10T02:09:07;50.03;;;38.00;;
32198;SDS011;19221;42.656;21.156;2022-10-10T02:11:35;46.25;;;37.80;;
32198;SDS011;19221;42.656;21.156;2022-10-10T02:16:52;48.53;;;37.65;;
32198;SDS011;19221;42.656;21.156;2022-10-10T02:19:19;51.97;;;37.15;;
32198;SDS011;19221;42.656;21.156;2022-10-10T02:21:46;45.83;;;37.97;;
32198;SDS011;19221;42.656;21.156;2022-10-10T02:24:12;47.97;;;37.00;;
32198;SDS011;19221;42.656;21.156;2022-10-10T02:26:38;51.00;;;37.88;;
32198;SDS011;19221;42.656;21.156;2022-10-10T02:29:18;46.40;;;36.88;;
32198;SDS011;19221;42.656;21.156;2022-10-10T02:31:47;44.40;;;38.15;;
32198;SDS011;19221;42.656;21.156;2022-10-10T02:34:18;48.58;;;37.67;;
32198;SDS011;19221;42.656;21.156;2022-10-10T02:36:46;46.38;;;37.65;;
32198;SDS011;19221;42.656;21.156;2022-10-10T02:39:13;48.97;;;36.78;;
32198;SDS011;19221;42.656;21.156;2022-10-10T02:41:41;45.90;;;35.65;;
32198;SDS011;19221;42.656;21.156;2022-10-10T02:44:09;45.92;;;36.70;;
32198;SDS011;19221;42.656;21.156;2022-10-10T02:46:35;44.65;;;36.17;;
32198;SDS011;19221;42.656;21.156;2022-10-10T02:49:00;44.95;;;36.20;;
32198;SDS011;19221;42.656;21.156;2022-10-10T02:51:26;43.38;;;35.13;;
32198;SDS011;19221;42.656;21.156;2022-10-10T02:53:53;44.28;;;36.58;;
32198;SDS011;19221;42.656;21.156;2022-10-10T02:56:18;47.60;;;36.28;;
32198;SDS011;19221;42.656;21.156;2022-10-10T02:58:44;45.33;;;35.53;;
32198;SDS011;19221;42.656;21.156;2022-10-10T03:01:10;46.50;;;37.15;;
32198;SDS011;19221;42.656;21.156;2022-10-10T03:03:35;46.90;;;37.80;;
32198;SDS011;19221;42.656;21.156;2022-10-10T03:06:01;56.45;;;42.38;;
32198;SDS011;19221;42.656;21.156;2022-10-10T03:08:28;57.70;;;45.10;;
32198;SDS011;19221;42.656;21.156;2022-10-10T03:10:56;66.40;;;45.83;;
32198;SDS011;19221;42.656;21.156;2022-10-10T03:13:22;60.03;;;47.08;;
32198;SDS011;19221;42.656;21.156;2022-10-10T03:15:48;64.28;;;48.85;;
32198;SDS011;19221;42.656;21.156;2022-10-10T03:18:14;60.55;;;46.03;;
32198;SDS011;19221;42.656;21.156;2022-10-10T03:20:39;59.53;;;45.33;;
32198;SDS011;19221;42.656;21.156;2022-10-10T03:23:05;64.95;;;45.63;;
32198;SDS011;19221;42.656;21.156;2022-10-10T03:25:31;60.72;;;47.05;;
32198;SDS011;19221;42.656;21.156;2022-10-10T03:27:59;57.88;;;46.78;;
32198;SDS011;19221;42.656;21.156;2022-10-10T03:30:24;69.13;;;49.15;;
32198;SDS011;19221;42.656;21.156;2022-10-10T03:32:50;63.78;;;47.70;;
32198;SDS011;19221;42.656;21.156;2022-10-10T03:35:16;68.78;;;48.63;;
32198;SDS011;19221;42.656;21.156;2022-10-10T03:37:41;59.78;;;47.55;;
32198;SDS011;19221;42.656;21.156;2022-10-10T03:40:07;66.00;;;49.65;;
32198;SDS011;19221;42.656;21.156;2022-10-10T03:42:33;64.13;;;49.85;;
32198;SDS011;19221;42.656;21.156;2022-10-10T03:44:59;63.78;;;50.17;;
32198;SDS011;19221;42.656;21.156;2022-10-10T03:47:24;64.95;;;50.00;;
32198;SDS011;19221;42.656;21.156;2022-10-10T03:49:50;67.45;;;50.97;;
32198;SDS011;19221;42.656;21.156;2022-10-10T03:52:16;72.43;;;49.75;;
32198;SDS011;19221;42.656;21.156;2022-10-10T03:54:41;72.10;;;51.15;;
32198;SDS011;19221;42.656;21.156;2022-10-10T03:57:07;71.20;;;49.97;;
32198;SDS011;19221;42.656;21.156;2022-10-10T03:59:33;67.10;;;49.47;;
32198;SDS011;19221;42.656;21.156;2022-10-10T04:01:58;64.95;;;51.28;;
32198;SDS011;19221;42.656;21.156;2022-10-10T04:04:24;65.60;;;50.28;;
32198;SDS011;19221;42.656;21.156;2022-10-10T04:06:51;68.35;;;52.03;;
32198;SDS011;19221;42.656;21.156;2022-10-10T04:09:21;65.68;;;51.83;;
32198;SDS011;19221;42.656;21.156;2022-10-10T04:11:48;71.10;;;53.13;;
32198;SDS011;19221;42.656;21.156;2022-10-10T04:14:13;61.03;;;48.95;;
32198;SDS011;19221;42.656;21.156;2022-10-10T04:16:39;67.78;;;51.15;;
32198;SDS011;19221;42.656;21.156;2022-10-10T04:22:09;64.22;;;48.63;;
32198;SDS011;19221;42.656;21.156;2022-10-10T04:24:36;64.55;;;48.80;;
32198;SDS011;19221;42.656;21.156;2022-10-10T04:27:02;66.80;;;50.72;;
32198;SDS011;19221;42.656;21.156;2022-10-10T04:29:28;63.67;;;47.83;;
32198;SDS011;19221;42.656;21.156;2022-10-10T04:31:54;59.92;;;45.88;;
32198;SDS011;19221;42.656;21.156;2022-10-10T04:34:19;60.60;;;45.55;;
32198;SDS011;19221;42.656;21.156;2022-10-10T04:36:45;58.17;;;45.15;;
32198;SDS011;19221;42.656;21.156;2022-10-10T04:39:11;53.40;;;43.22;;
32198;SDS011;19221;42.656;21.156;2022-10-10T04:41:36;50.30;;;40.47;;
32198;SDS011;19221;42.656;21.156;2022-10-10T04:44:02;57.33;;;42.47;;
32198;SDS011;19221;42.656;21.156;2022-10-10T04:46:28;51.63;;;38.38;;
32198;SDS011;19221;42.656;21.156;2022-10-10T04:48:53;49.05;;;37.28;;
32198;SDS011;19221;42.656;21.156;2022-10-10T04:51:19;50.35;;;36.83;;
32198;SDS011;19221;42.656;21.156;2022-10-10T04:53:45;56.47;;;39.30;;
32198;SDS011;19221;42.656;21.156;2022-10-10T04:56:10;70.38;;;49.97;;
32198;SDS011;19221;42.656;21.156;2022-10-10T04:58:36;57.38;;;45.83;;
32198;SDS011;19221;42.656;21.156;2022-10-10T05:01:02;61.67;;;46.75;;
32198;SDS011;19221;42.656;21.156;2022-10-10T05:03:28;71.60;;;51.20;;
32198;SDS011;19221;42.656;21.156;2022-10-10T05:05:54;65.93;;;46.85;;
32198;SDS011;19221;42.656;21.156;2022-10-10T05:08:20;76.75;;;50.65;;
32198;SDS011;19221;42.656;21.156;2022-10-10T05:10:46;74.43;;;49.95;;
32198;SDS011;19221;42.656;21.156;2022-10-10T05:13:12;66.18;;;47.92;;
32198;SDS011;19221;42.656;21.156;2022-10-10T05:15:38;58.88;;;42.38;;
32198;SDS011;19221;42.656;21.156;2022-10-10T05:18:04;55.42;;;41.10;;
32198;SDS011;19221;42.656;21.156;2022-10-10T05:20:30;47.75;;;37.17;;
32198;SDS011;19221;42.656;21.156;2022-10-10T05:22:56;54.92;;;37.28;;
32198;SDS011;19221;42.656;21.156;2022-10-10T05:25:22;51.63;;;38.05;;
32198;SDS011;19221;42.656;21.156;2022-10-10T05:27:48;70.30;;;45.03;;
32198;SDS011;19221;42.656;21.156;2022-10-10T05:30:13;65.75;;;46.20;;
32198;SDS011;19221;42.656;21.156;2022-10-10T05:32:39;74.40;;;48.53;;
32198;SDS011;19221;42.656;21.156;2022-10-10T05:35:05;74.03;;;48.53;;
32198;SDS011;19221;42.656;21.156;2022-10-10T05:37:32;71.97;;;49.03;;
32198;SDS011;19221;42.656;21.156;2022-10-10T05:39:58;73.05;;;49.17;;
32198;SDS011;19221;42.656;21.156;2022-10-10T05:42:24;66.55;;;50.45;;
32198;SDS011;19221;42.656;21.156;2022-10-10T05:44:49;81.35;;;49.20;;
32198;SDS011;19221;42.656;21.156;2022-10-10T05:47:15;77.30;;;49.33;;
32198;SDS011;19221;42.656;21.156;2022-10-10T05:52:44;64.85;;;43.28;;
32198;SDS011;19221;42.656;21.156;2022-10-10T05:55:10;64.90;;;41.47;;
32198;SDS011;19221;42.656;21.156;2022-10-10T05:57:36;64.57;;;40.88;;
32198;SDS011;19221;42.656;21.156;2022-10-10T06:00:02;69.22;;;43.45;;
32198;SDS011;19221;42.656;21.156;2022-10-10T06:02:28;66.22;;;43.97;;
32198;SDS011;19221;42.656;21.156;2022-10-10T06:04:53;65.35;;;44.70;;
32198;SDS011;19221;42.656;21.156;2022-10-10T06:07:20;68.43;;;47.10;;
32198;SDS011;19221;42.656;21.156;2022-10-10T06:09:46;70.78;;;44.92;;
32198;SDS011;19221;42.656;21.156;2022-10-10T06:12:12;77.93;;;45.95;;
32198;SDS011;19221;42.656;21.156;2022-10-10T06:14:39;76.53;;;45.08;;
32198;SDS011;19221;42.656;21.156;2022-10-10T06:17:05;67.60;;;46.03;;
32198;SDS011;19221;42.656;21.156;2022-10-10T06:19:40;63.10;;;43.83;;
32198;SDS011;19221;42.656;21.156;2022-10-10T06:22:06;72.70;;;47.08;;
32198;SDS011;19221;42.656;21.156;2022-10-10T06:24:33;65.68;;;44.63;;
32198;SDS011;19221;42.656;21.156;2022-10-10T06:26:59;70.05;;;44.00;;
32198;SDS011;19221;42.656;21.156;2022-10-10T06:29:24;72.85;;;45.25;;
32198;SDS011;19221;42.656;21.156;2022-10-10T06:31:50;67.82;;;43.05;;
32198;SDS011;19221;42.656;21.156;2022-10-10T06:34:17;74.88;;;44.97;;
32198;SDS011;19221;42.656;21.156;2022-10-10T06:36:42;65.93;;;43.95;;
32198;SDS011;19221;42.656;21.156;2022-10-10T06:39:08;65.97;;;45.45;;
32198;SDS011;19221;42.656;21.156;2022-10-10T06:41:34;67.18;;;43.30;;
32198;SDS011;19221;42.656;21.156;2022-10-10T06:44:00;71.38;;;43.95;;
32198;SDS011;19221;42.656;21.156;2022-10-10T06:46:25;70.68;;;45.40;;
32198;SDS011;19221;42.656;21.156;2022-10-10T06:48:51;69.57;;;43.60;;
32198;SDS011;19221;42.656;21.156;2022-10-10T06:51:17;67.50;;;43.20;;
32198;SDS011;19221;42.656;21.156;2022-10-10T06:53:43;79.65;;;46.97;;
32198;SDS011;19221;42.656;21.156;2022-10-10T06:56:09;68.82;;;44.30;;
32198;SDS011;19221;42.656;21.156;2022-10-10T06:58:40;75.43;;;45.72;;
32198;SDS011;19221;42.656;21.156;2022-10-10T07:01:05;70.50;;;44.53;;
32198;SDS011;19221;42.656;21.156;2022-10-10T07:03:31;65.13;;;44.25;;
32198;SDS011;19221;42.656;21.156;2022-10-10T07:05:58;71.38;;;47.58;;
32198;SDS011;19221;42.656;21.156;2022-10-10T07:08:24;69.30;;;46.08;;
32198;SDS011;19221;42.656;21.156;2022-10-10T07:10:53;68.50;;;45.05;;
32198;SDS011;19221;42.656;21.156;2022-10-10T07:13:36;68.18;;;45.22;;
32198;SDS011;19221;42.656;21.156;2022-10-10T07:16:02;77.70;;;45.97;;
32198;SDS011;19221;42.656;21.156;2022-10-10T07:18:28;71.88;;;47.08;;
32198;SDS011;19221;42.656;21.156;2022-10-10T07:20:55;65.32;;;46.60;;
32198;SDS011;19221;42.656;21.156;2022-10-10T07:23:21;75.75;;;48.03;;
32198;SDS011;19221;42.656;21.156;2022-10-10T07:25:46;76.40;;;47.53;;
32198;SDS011;19221;42.656;21.156;2022-10-10T07:28:12;75.28;;;47.83;;
32198;SDS011;19221;42.656;21.156;2022-10-10T07:30:41;78.82;;;47.40;;
32198;SDS011;19221;42.656;21.156;2022-10-10T07:33:08;73.43;;;44.95;;
32198;SDS011;19221;42.656;21.156;2022-10-10T07:35:36;73.55;;;46.92;;
32198;SDS011;19221;42.656;21.156;2022-10-10T07:38:05;81.32;;;48.47;;
32198;SDS011;19221;42.656;21.156;2022-10-10T07:40:31;72.57;;;47.97;;
32198;SDS011;19221;42.656;21.156;2022-10-10T07:42:57;76.15;;;49.08;;
32198;SDS011;19221;42.656;21.156;2022-10-10T07:45:24;67.32;;;46.05;;
32198;SDS011;19221;42.656;21.156;2022-10-10T07:47:52;70.53;;;47.47;;
32198;SDS011;19221;42.656;21.156;2022-10-10T07:50:18;79.75;;;47.40;;
32198;SDS011;19221;42.656;21.156;2022-10-10T07:52:44;63.05;;;45.22;;
32198;SDS011;19221;42.656;21.156;2022-10-10T07:55:09;64.72;;;44.90;;
32198;SDS011;19221;42.656;21.156;2022-10-10T07:57:35;71.55;;;45.38;;
32198;SDS011;19221;42.656;21.156;2022-10-10T08:00:06;69.25;;;47.45;;
32198;SDS011;19221;42.656;21.156;2022-10-10T08:02:32;66.38;;;44.25;;
32198;SDS011;19221;42.656;21.156;2022-10-10T08:04:57;68.07;;;44.85;;
32198;SDS011;19221;42.656;21.156;2022-10-10T08:07:23;67.57;;;45.08;;
32198;SDS011;19221;42.656;21.156;2022-10-10T08:09:49;63.08;;;44.10;;
32198;SDS011;19221;42.656;21.156;2022-10-10T08:12:15;69.45;;;44.42;;
32198;SDS011;19221;42.656;21.156;2022-10-10T08:14:40;68.15;;;43.63;;
32198;SDS011;19221;42.656;21.156;2022-10-10T08:17:06;72.95;;;43.72;;
32198;SDS011;19221;42.656;21.156;2022-10-10T08:19:32;90.72;;;53.03;;
32198;SDS011;19221;42.656;21.156;2022-10-10T08:21:57;65.35;;;43.90;;
32198;SDS011;19221;42.656;21.156;2022-10-10T08:24:23;66.93;;;43.72;;
32198;SDS011;19221;42.656;21.156;2022-10-10T08:26:49;65.95;;;45.30;;
32198;SDS011;19221;42.656;21.156;2022-10-10T08:29:15;70.20;;;45.25;;
32198;SDS011;19221;42.656;21.156;2022-10-10T08:31:41;71.22;;;44.78;;
32198;SDS011;19221;42.656;21.156;2022-10-10T08:34:07;75.22;;;46.00;;
32198;SDS011;19221;42.656;21.156;2022-10-10T08:36:34;79.57;;;49.50;;
32198;SDS011;19221;42.656;21.156;2022-10-10T08:39:00;71.50;;;48.72;;
32198;SDS011;19221;42.656;21.156;2022-10-10T08:44:01;67.43;;;47.20;;
32198;SDS011;19221;42.656;21.156;2022-10-10T08:46:34;66.47;;;48.70;;
32198;SDS011;19221;42.656;21.156;2022-10-10T08:49:03;69.78;;;49.00;;
32198;SDS011;19221;42.656;21.156;2022-10-10T08:51:36;76.90;;;48.42;;
32198;SDS011;19221;42.656;21.156;2022-10-10T08:54:03;69.03;;;48.63;;
32198;SDS011;19221;42.656;21.156;2022-10-10T08:56:32;76.07;;;51.10;;
32198;SDS011;19221;42.656;21.156;2022-10-10T08:59:10;81.00;;;50.80;;
32198;SDS011;19221;42.656;21.156;2022-10-10T09:01:37;78.90;;;51.80;;
32198;SDS011;19221;42.656;21.156;2022-10-10T09:04:04;73.50;;;51.35;;
32198;SDS011;19221;42.656;21.156;2022-10-10T09:14:58;73.63;;;50.47;;
32198;SDS011;19221;42.656;21.156;2022-10-10T09:20:02;74.50;;;50.15;;
32198;SDS011;19221;42.656;21.156;2022-10-10T09:22:38;71.65;;;50.28;;
32198;SDS011;19221;42.656;21.156;2022-10-10T09:25:17;75.30;;;50.95;;
32198;SDS011;19221;42.656;21.156;2022-10-10T09:27:45;71.95;;;49.75;;
32198;SDS011;19221;42.656;21.156;2022-10-10T09:30:18;74.03;;;49.28;;
32198;SDS011;19221;42.656;21.156;2022-10-10T09:32:45;75.32;;;50.10;;
32198;SDS011;19221;42.656;21.156;2022-10-10T09:37:40;74.38;;;50.42;;
32198;SDS011;19221;42.656;21.156;2022-10-10T09:40:24;78.57;;;50.25;;
32198;SDS011;19221;42.656;21.156;2022-10-10T09:42:51;46.00;;;33.33;;
32198;SDS011;19221;42.656;21.156;2022-10-10T09:45:19;76.75;;;47.97;;
32198;SDS011;19221;42.656;21.156;2022-10-10T09:47:46;67.28;;;45.42;;
32198;SDS011;19221;42.656;21.156;2022-10-10T09:50:13;78.88;;;52.72;;
32198;SDS011;19221;42.656;21.156;2022-10-10T09:52:39;69.38;;;49.90;;
32198;SDS011;19221;42.656;21.156;2022-10-10T09:55:14;66.18;;;46.65;;
32198;SDS011;19221;42.656;21.156;2022-10-10T09:57:42;88.93;;;50.55;;
32198;SDS011;19221;42.656;21.156;2022-10-10T10:00:27;89.63;;;52.25;;
32198;SDS011;19221;42.656;21.156;2022-10-10T10:05:34;69.72;;;47.40;;
32198;SDS011;19221;42.656;21.156;2022-10-10T10:08:00;74.47;;;48.03;;
32198;SDS011;19221;42.656;21.156;2022-10-10T10:10:26;64.72;;;44.92;;
32198;SDS011;19221;42.656;21.156;2022-10-10T10:12:53;76.22;;;47.30;;
32198;SDS011;19221;42.656;21.156;2022-10-10T10:15:20;75.55;;;46.42;;
32198;SDS011;19221;42.656;21.156;2022-10-10T10:20:32;72.85;;;47.03;;
32198;SDS011;19221;42.656;21.156;2022-10-10T10:22:58;57.65;;;43.92;;
32198;SDS011;19221;42.656;21.156;2022-10-10T10:25:42;73.85;;;47.50;;
32198;SDS011;19221;42.656;21.156;2022-10-10T10:30:36;77.88;;;50.70;;
32198;SDS011;19221;42.656;21.156;2022-10-10T10:35:35;62.38;;;45.95;;
32198;SDS011;19221;42.656;21.156;2022-10-10T10:45:37;78.63;;;50.97;;
32198;SDS011;19221;42.656;21.156;2022-10-10T10:50:58;84.03;;;58.63;;
32198;SDS011;19221;42.656;21.156;2022-10-10T10:53:49;98.85;;;60.28;;
32198;SDS011;19221;42.656;21.156;2022-10-10T11:04:03;80.68;;;55.55;;
32198;SDS011;19221;42.656;21.156;2022-10-10T11:10:16;62.57;;;45.97;;
32198;SDS011;19221;42.656;21.156;2022-10-10T11:17:33;84.15;;;57.33;;
32198;SDS011;19221;42.656;21.156;2022-10-10T11:22:32;89.50;;;56.25;;
32198;SDS011;19221;42.656;21.156;2022-10-10T11:25:01;83.90;;;53.47;;
32198;SDS011;19221;42.656;21.156;2022-10-10T11:27:31;78.05;;;54.90;;
32198;SDS011;19221;42.656;21.156;2022-10-10T11:30:04;72.55;;;52.67;;
32198;SDS011;19221;42.656;21.156;2022-10-10T11:32:42;79.78;;;53.17;;
32198;SDS011;19221;42.656;21.156;2022-10-10T11:37:44;74.72;;;52.63;;
32198;SDS011;19221;42.656;21.156;2022-10-10T11:40:46;79.28;;;52.08;;
32198;SDS011;19221;42.656;21.156;2022-10-10T11:43:05;75.72;;;52.67;;
32198;SDS011;19221;42.656;21.156;2022-10-10T11:45:36;76.82;;;52.47;;
32198;SDS011;19221;42.656;21.156;2022-10-10T11:50:37;76.35;;;52.72;;
32198;SDS011;19221;42.656;21.156;2022-10-10T11:53:19;80.45;;;53.80;;
32198;SDS011;19221;42.656;21.156;2022-10-10T11:55:54;77.07;;;53.85;;
32198;SDS011;19221;42.656;21.156;2022-10-10T11:58:29;71.82;;;51.55;;
32198;SDS011;19221;42.656;21.156;2022-10-10T12:00:57;80.55;;;54.22;;
32198;SDS011;19221;42.656;21.156;2022-10-10T12:03:24;74.72;;;52.65;;
32198;SDS011;19221;42.656;21.156;2022-10-10T12:05:56;84.22;;;56.15;;
32198;SDS011;19221;42.656;21.156;2022-10-10T12:08:27;78.80;;;52.08;;
32198;SDS011;19221;42.656;21.156;2022-10-10T12:11:00;78.85;;;53.75;;
32198;SDS011;19221;42.656;21.156;2022-10-10T12:13:40;82.45;;;53.67;;
32198;SDS011;19221;42.656;21.156;2022-10-10T12:16:06;91.07;;;50.55;;
32198;SDS011;19221;42.656;21.156;2022-10-10T12:21:06;70.50;;;50.30;;
32198;SDS011;19221;42.656;21.156;2022-10-10T12:23:32;79.57;;;49.47;;
32198;SDS011;19221;42.656;21.156;2022-10-10T12:25:58;74.05;;;47.75;;
32198;SDS011;19221;42.656;21.156;2022-10-10T12:31:29;74.63;;;48.17;;
32198;SDS011;19221;42.656;21.156;2022-10-10T12:33:59;73.53;;;47.95;;
32198;SDS011;19221;42.656;21.156;2022-10-10T12:41:36;82.63;;;52.13;;
32198;SDS011;19221;42.656;21.156;2022-10-10T12:46:39;76.68;;;49.35;;
32198;SDS011;19221;42.656;21.156;2022-10-10T12:49:16;73.45;;;46.60;;
32198;SDS011;19221;42.656;21.156;2022-10-10T12:51:43;60.78;;;44.53;;
32198;SDS011;19221;42.656;21.156;2022-10-10T12:59:47;64.43;;;44.80;;
32198;SDS011;19221;42.656;21.156;2022-10-10T13:02:23;62.15;;;44.55;;
32198;SDS011;19221;42.656;21.156;2022-10-10T13:04:50;63.85;;;44.15;;
32198;SDS011;19221;42.656;21.156;2022-10-10T13:07:18;66.15;;;45.92;;
32198;SDS011;19221;42.656;21.156;2022-10-10T13:09:45;60.03;;;44.53;;
32198;SDS011;19221;42.656;21.156;2022-10-10T13:12:32;61.45;;;43.40;;
32198;SDS011;19221;42.656;21.156;2022-10-10T13:14:58;65.32;;;46.58;;
32198;SDS011;19221;42.656;21.156;2022-10-10T13:17:28;60.60;;;45.40;;
32198;SDS011;19221;42.656;21.156;2022-10-10T13:19:55;56.55;;;40.25;;
32198;SDS011;19221;42.656;21.156;2022-10-10T13:22:21;53.53;;;37.97;;
32198;SDS011;19221;42.656;21.156;2022-10-10T13:24:47;55.53;;;40.35;;
32198;SDS011;19221;42.656;21.156;2022-10-10T13:27:17;53.72;;;40.05;;
32198;SDS011;19221;42.656;21.156;2022-10-10T13:29:45;56.63;;;38.22;;
32198;SDS011;19221;42.656;21.156;2022-10-10T13:32:15;56.75;;;38.78;;
32198;SDS011;19221;42.656;21.156;2022-10-10T13:34:42;56.38;;;37.78;;
32198;SDS011;19221;42.656;21.156;2022-10-10T13:37:11;55.83;;;38.28;;
32198;SDS011;19221;42.656;21.156;2022-10-10T13:39:38;57.00;;;40.05;;
32198;SDS011;19221;42.656;21.156;2022-10-10T13:42:04;53.35;;;37.60;;
32198;SDS011;19221;42.656;21.156;2022-10-10T13:44:54;54.63;;;39.42;;
32198;SDS011;19221;42.656;21.156;2022-10-10T13:50:15;56.95;;;38.55;;
32198;SDS011;19221;42.656;21.156;2022-10-10T13:52:42;49.38;;;37.95;;
32198;SDS011;19221;42.656;21.156;2022-10-10T13:55:41;57.63;;;40.78;;
32198;SDS011;19221;42.656;21.156;2022-10-10T13:57:59;62.17;;;39.78;;
32198;SDS011;19221;42.656;21.156;2022-10-10T14:00:30;49.63;;;38.20;;
32198;SDS011;19221;42.656;21.156;2022-10-10T14:02:57;49.95;;;37.55;;
32198;SDS011;19221;42.656;21.156;2022-10-10T14:05:28;44.25;;;35.65;;
32198;SDS011;19221;42.656;21.156;2022-10-10T14:07:54;44.75;;;35.47;;
32198;SDS011;19221;42.656;21.156;2022-10-10T14:10:22;50.40;;;36.03;;
32198;SDS011;19221;42.656;21.156;2022-10-10T14:12:49;48.17;;;34.97;;
32198;SDS011;19221;42.656;21.156;2022-10-10T14:20:39;49.85;;;35.50;;
32198;SDS011;19221;42.656;21.156;2022-10-10T14:23:05;54.90;;;33.92;;
32198;SDS011;19221;42.656;21.156;2022-10-10T14:25:31;52.13;;;34.35;;
32198;SDS011;19221;42.656;21.156;2022-10-10T14:27:57;48.03;;;33.25;;
32198;SDS011;19221;42.656;21.156;2022-10-10T14:30:22;41.90;;;33.58;;
32198;SDS011;19221;42.656;21.156;2022-10-10T14:32:48;50.10;;;34.47;;
32198;SDS011;19221;42.656;21.156;2022-10-10T14:35:14;41.83;;;32.97;;
32198;SDS011;19221;42.656;21.156;2022-10-10T14:37:39;51.80;;;33.50;;
32198;SDS011;19221;42.656;21.156;2022-10-10T14:40:16;45.40;;;33.65;;
32198;SDS011;19221;42.656;21.156;2022-10-10T14:42:42;44.97;;;33.17;;
32198;SDS011;19221;42.656;21.156;2022-10-10T14:45:11;47.38;;;34.80;;
32198;SDS011;19221;42.656;21.156;2022-10-10T14:47:37;48.75;;;34.95;;
32198;SDS011;19221;42.656;21.156;2022-10-10T14:50:02;46.55;;;33.42;;
32198;SDS011;19221;42.656;21.156;2022-10-10T14:52:37;47.67;;;34.70;;
32198;SDS011;19221;42.656;21.156;2022-10-10T14:55:02;40.15;;;32.95;;
32198;SDS011;19221;42.656;21.156;2022-10-10T14:57:28;46.13;;;33.15;;
32198;SDS011;19221;42.656;21.156;2022-10-10T14:59:54;43.10;;;34.70;;
32198;SDS011;19221;42.656;21.156;2022-10-10T15:02:20;50.85;;;34.28;;
32198;SDS011;19221;42.656;21.156;2022-10-10T15:04:47;48.22;;;33.50;;
32198;SDS011;19221;42.656;21.156;2022-10-10T15:07:12;48.70;;;34.78;;
32198;SDS011;19221;42.656;21.156;2022-10-10T15:09:38;48.33;;;36.60;;
32198;SDS011;19221;42.656;21.156;2022-10-10T15:12:04;47.03;;;34.15;;
32198;SDS011;19221;42.656;21.156;2022-10-10T15:14:30;52.13;;;34.70;;
32198;SDS011;19221;42.656;21.156;2022-10-10T15:16:55;51.60;;;35.08;;
32198;SDS011;19221;42.656;21.156;2022-10-10T15:19:21;61.30;;;40.55;;
32198;SDS011;19221;42.656;21.156;2022-10-10T15:21:47;74.82;;;38.80;;
32198;SDS011;19221;42.656;21.156;2022-10-10T15:24:12;61.95;;;39.10;;
32198;SDS011;19221;42.656;21.156;2022-10-10T15:26:38;50.70;;;35.20;;
32198;SDS011;19221;42.656;21.156;2022-10-10T15:29:04;55.97;;;38.72;;
32198;SDS011;19221;42.656;21.156;2022-10-10T15:31:29;61.90;;;38.25;;
32198;SDS011;19221;42.656;21.156;2022-10-10T15:33:57;64.60;;;38.42;;
32198;SDS011;19221;42.656;21.156;2022-10-10T15:36:23;59.08;;;35.90;;
32198;SDS011;19221;42.656;21.156;2022-10-10T15:38:49;54.75;;;34.78;;
32198;SDS011;19221;42.656;21.156;2022-10-10T15:41:15;61.88;;;36.88;;
32198;SDS011;19221;42.656;21.156;2022-10-10T15:43:45;84.18;;;46.90;;
32198;SDS011;19221;42.656;21.156;2022-10-10T15:46:15;78.10;;;44.88;;
32198;SDS011;19221;42.656;21.156;2022-10-10T15:48:40;84.53;;;48.40;;
32198;SDS011;19221;42.656;21.156;2022-10-10T15:51:06;65.72;;;42.97;;
32198;SDS011;19221;42.656;21.156;2022-10-10T15:53:32;63.00;;;41.45;;
32198;SDS011;19221;42.656;21.156;2022-10-10T15:55:58;53.15;;;38.53;;
32198;SDS011;19221;42.656;21.156;2022-10-10T15:58:24;55.72;;;36.75;;
32198;SDS011;19221;42.656;21.156;2022-10-10T16:00:49;60.03;;;37.92;;
32198;SDS011;19221;42.656;21.156;2022-10-10T16:03:15;58.03;;;39.50;;
32198;SDS011;19221;42.656;21.156;2022-10-10T16:05:41;65.88;;;41.05;;
32198;SDS011;19221;42.656;21.156;2022-10-10T16:08:07;67.80;;;39.70;;
32198;SDS011;19221;42.656;21.156;2022-10-10T16:10:37;70.00;;;44.50;;
32198;SDS011;19221;42.656;21.156;2022-10-10T16:13:03;58.13;;;38.75;;
32198;SDS011;19221;42.656;21.156;2022-10-10T16:15:28;55.17;;;38.38;;
32198;SDS011;19221;42.656;21.156;2022-10-10T16:17:54;46.33;;;33.45;;